sensor_id;sensor_type;location;lat;lon;timestamp;pressure;altitude;pressure_sealevel;temperature;humidity
22930;BME280;11630;42.660;23.292;2022-08-27T00:01:02;69727.81;;;19.79;100.00
22930;BME280;11630;42.660;23.292;2022-08-27T00:03:33;69722.64;;;19.71;100.00
22930;BME280;11630;42.660;23.292;2022-08-27T00:06:04;69748.15;;;19.95;100.00
22930;BME280;11630;42.660;23.292;2022-08-27T00:08:35;69720.38;;;19.76;100.00
22930;BME280;11630;42.660;23.292;2022-08-27T00:11:06;69718.75;;;19.75;100.00
22930;BME280;11630;42.660;23.292;2022-08-27T00:13:37;69688.33;;;19.46;100.00
22930;BME280;11630;42.660;23.292;2022-08-27T00:16:10;69673.85;;;19.24;100.00
22930;BME280;11630;42.660;23.292;2022-08-27T00:18:43;69623.92;;;18.86;100.00
22930;BME280;11630;42.660;23.292;2022-08-27T00:21:16;69619.20;;;18.93;100.00
22930;BME280;11630;42.660;23.292;2022-08-27T00:23:47;69634.33;;;18.96;100.00
22930;BME280;11630;42.660;23.292;2022-08-27T00:26:18;69653.23;;;19.19;100.00
22930;BME280;11630;42.660;23.292;2022-08-27T00:28:48;69654.59;;;19.22;100.00
22930;BME280;11630;42.660;23.292;2022-08-27T00:31:19;69677.11;;;19.32;100.00
22930;BME280;11630;42.660;23.292;2022-08-27T00:33:49;69682.84;;;19.43;100.00
22930;BME280;11630;42.660;23.292;2022-08-27T00:36:22;69691.10;;;19.43;100.00
22930;BME280;11630;42.660;23.292;2022-08-27T00:38:52;69677.11;;;19.32;100.00
22930;BME280;11630;42.660;23.292;2022-08-27T00:41:24;69678.69;;;19.46;100.00
22930;BME280;11630;42.660;23.292;2022-08-27T00:43:55;69675.69;;;19.39;100.00
22930;BME280;11630;42.660;23.292;2022-08-27T00:46:39;69671.61;;;19.32;100.00
22930;BME280;11630;42.660;23.292;2022-08-27T00:49:22;69646.96;;;19.02;100.00
22930;BME280;11630;42.660;23.292;2022-08-27T00:52:02;69635.16;;;18.95;100.00
22930;BME280;11630;42.660;23.292;2022-08-27T00:54:26;69637.60;;;19.01;100.00
22930;BME280;11630;42.660;23.292;2022-08-27T00:56:57;69648.88;;;19.10;100.00
22930;BME280;11630;42.660;23.292;2022-08-27T00:59:29;69659.58;;;19.16;100.00
22930;BME280;11630;42.660;23.292;2022-08-27T01:01:59;69652.44;;;19.10;100.00
22930;BME280;11630;42.660;23.292;2022-08-27T01:04:59;69654.05;;;19.19;100.00
22930;BME280;11630;42.660;23.292;2022-08-27T01:07:31;69656.50;;;19.22;100.00
22930;BME280;11630;42.660;23.292;2022-08-27T01:10:04;69631.31;;;18.94;100.00
22930;BME280;11630;42.660;23.292;2022-08-27T01:12:34;69625.53;;;18.95;100.00
22930;BME280;11630;42.660;23.292;2022-08-27T01:15:08;69607.45;;;18.76;100.00
22930;BME280;11630;42.660;23.292;2022-08-27T01:17:39;69614.59;;;18.80;100.00
22930;BME280;11630;42.660;23.292;2022-08-27T01:20:18;69627.47;;;18.91;100.00
22930;BME280;11630;42.660;23.292;2022-08-27T01:23:10;69603.63;;;18.70;100.00
22930;BME280;11630;42.660;23.292;2022-08-27T01:25:37;69591.61;;;18.57;100.00
22930;BME280;11630;42.660;23.292;2022-08-27T01:28:09;69611.58;;;18.76;100.00
22930;BME280;11630;42.660;23.292;2022-08-27T01:30:41;69608.58;;;18.72;100.00
22930;BME280;11630;42.660;23.292;2022-08-27T01:33:13;69615.41;;;18.82;100.00
22930;BME280;11630;42.660;23.292;2022-08-27T01:35:45;69624.16;;;18.95;100.00
22930;BME280;11630;42.660;23.292;2022-08-27T01:38:15;69642.59;;;18.98;100.00
22930;BME280;11630;42.660;23.292;2022-08-27T01:40:45;69648.06;;;19.03;100.00
22930;BME280;11630;42.660;23.292;2022-08-27T01:43:16;69648.88;;;19.10;100.00
22930;BME280;11630;42.660;23.292;2022-08-27T01:45:50;69658.67;;;19.29;100.00
22930;BME280;11630;42.660;23.292;2022-08-27T01:48:22;69639.77;;;19.11;100.00
22930;BME280;11630;42.660;23.292;2022-08-27T01:50:54;69644.70;;;19.15;100.00
22930;BME280;11630;42.660;23.292;2022-08-27T01:53:26;69646.92;;;19.07;100.00
22930;BME280;11630;42.660;23.292;2022-08-27T01:55:56;69650.78;;;19.08;100.00
22930;BME280;11630;42.660;23.292;2022-08-27T01:58:29;69639.24;;;19.03;100.00
22930;BME280;11630;42.660;23.292;2022-08-27T02:01:03;69627.49;;;18.88;100.00
22930;BME280;11630;42.660;23.292;2022-08-27T02:03:32;69629.94;;;18.94;100.00
22930;BME280;11630;42.660;23.292;2022-08-27T02:06:06;69627.98;;;18.99;100.00
22930;BME280;11630;42.660;23.292;2022-08-27T02:08:37;69615.66;;;18.86;100.00
22930;BME280;11630;42.660;23.292;2022-08-27T02:11:09;69617.36;;;18.78;100.00
22930;BME280;11630;42.660;23.292;2022-08-27T02:13:39;69583.34;;;18.59;100.00
22930;BME280;11630;42.660;23.292;2022-08-27T02:16:10;69569.94;;;18.44;100.00
22930;BME280;11630;42.660;23.292;2022-08-27T02:18:40;69560.63;;;18.35;100.00
22930;BME280;11630;42.660;23.292;2022-08-27T02:21:11;69550.77;;;18.26;100.00
22930;BME280;11630;42.660;23.292;2022-08-27T02:23:42;69531.86;;;18.08;100.00
22930;BME280;11630;42.660;23.292;2022-08-27T02:26:13;69546.12;;;18.21;100.00
22930;BME280;11630;42.660;23.292;2022-08-27T02:28:43;69557.89;;;18.30;100.00
22930;BME280;11630;42.660;23.292;2022-08-27T02:31:14;69552.44;;;18.23;100.00
22930;BME280;11630;42.660;23.292;2022-08-27T02:33:45;69541.72;;;18.17;100.00
22930;BME280;11630;42.660;23.292;2022-08-27T02:36:17;69567.50;;;18.33;100.00
22930;BME280;11630;42.660;23.292;2022-08-27T02:38:47;69555.44;;;18.27;100.00
22930;BME280;11630;42.660;23.292;2022-08-27T02:41:17;69563.69;;;18.27;100.00
22930;BME280;11630;42.660;23.292;2022-08-27T02:43:48;69552.98;;;18.23;100.00
22930;BME280;11630;42.660;23.292;2022-08-27T02:46:21;69560.63;;;18.35;100.00
22930;BME280;11630;42.660;23.292;2022-08-27T02:48:54;69561.70;;;18.36;100.00
22930;BME280;11630;42.660;23.292;2022-08-27T02:51:25;69548.31;;;18.23;100.00
22930;BME280;11630;42.660;23.292;2022-08-27T02:53:56;69521.45;;;18.01;100.00
22930;BME280;11630;42.660;23.292;2022-08-27T02:56:27;69531.31;;;18.10;100.00
22930;BME280;11630;42.660;23.292;2022-08-27T02:58:58;69514.88;;;17.92;100.00
22930;BME280;11630;42.660;23.292;2022-08-27T03:01:28;69520.08;;;18.01;100.00
22930;BME280;11630;42.660;23.292;2022-08-27T03:03:59;69530.20;;;18.06;100.00
22930;BME280;11630;42.660;23.292;2022-08-27T03:06:30;69538.16;;;18.15;100.00
22930;BME280;11630;42.660;23.292;2022-08-27T03:09:01;69541.72;;;18.17;100.00
22930;BME280;11630;42.660;23.292;2022-08-27T03:11:31;69513.24;;;17.91;100.00
22930;BME280;11630;42.660;23.292;2022-08-27T03:14:05;69508.88;;;17.82;100.00
22930;BME280;11630;42.660;23.292;2022-08-27T03:16:37;69472.71;;;17.59;100.00
22930;BME280;11630;42.660;23.292;2022-08-27T03:19:09;69485.31;;;17.68;100.00
22930;BME280;11630;42.660;23.292;2022-08-27T03:21:39;69484.00;;;17.58;100.00
22930;BME280;11630;42.660;23.292;2022-08-27T03:24:10;69478.80;;;17.50;100.00
22930;BME280;11630;42.660;23.292;2022-08-27T03:26:41;69459.57;;;17.50;100.00
22930;BME280;11630;42.660;23.292;2022-08-27T03:29:12;69468.89;;;17.53;100.00
22930;BME280;11630;42.660;23.292;2022-08-27T03:31:43;69464.78;;;17.53;100.00
22930;BME280;11630;42.660;23.292;2022-08-27T03:34:14;69476.03;;;17.57;100.00
22930;BME280;11630;42.660;23.292;2022-08-27T03:36:45;69489.70;;;17.70;100.00
22930;BME280;11630;42.660;23.292;2022-08-27T03:39:16;69499.02;;;17.78;100.00
22930;BME280;11630;42.660;23.292;2022-08-27T03:41:47;69504.75;;;17.87;100.00
22930;BME280;11630;42.660;23.292;2022-08-27T03:44:17;69521.98;;;18.01;100.00
22930;BME280;11630;42.660;23.292;2022-08-27T03:46:48;69516.27;;;17.90;100.00
22930;BME280;11630;42.660;23.292;2022-08-27T03:49:20;69515.99;;;17.91;100.00
22930;BME280;11630;42.660;23.292;2022-08-27T03:51:52;69527.53;;;17.94;100.00
22930;BME280;11630;42.660;23.292;2022-08-27T03:54:23;69497.92;;;17.77;100.00
22930;BME280;11630;42.660;23.292;2022-08-27T03:56:54;69504.45;;;17.88;100.00
22930;BME280;11630;42.660;23.292;2022-08-27T03:59:26;69516.02;;;17.81;100.00
22930;BME280;11630;42.660;23.292;2022-08-27T04:01:56;69510.78;;;17.87;100.00
22930;BME280;11630;42.660;23.292;2022-08-27T04:04:28;69513.00;;;17.87;100.00
22930;BME280;11630;42.660;23.292;2022-08-27T04:06:58;69515.45;;;17.90;100.00
22930;BME280;11630;42.660;23.292;2022-08-27T04:09:29;69511.04;;;17.94;100.00
22930;BME280;11630;42.660;23.292;2022-08-27T04:11:59;69507.72;;;17.96;100.00
22930;BME280;11630;42.660;23.292;2022-08-27T04:14:30;69521.72;;;18.02;100.00
22930;BME280;11630;42.660;23.292;2022-08-27T04:17:01;69543.95;;;18.09;100.00
22930;BME280;11630;42.660;23.292;2022-08-27T04:19:31;69538.73;;;18.08;100.00
22930;BME280;11630;42.660;23.292;2022-08-27T04:22:04;69506.13;;;17.84;100.00
22930;BME280;11630;42.660;23.292;2022-08-27T04:24:36;69515.17;;;17.91;100.00
22930;BME280;11630;42.660;23.292;2022-08-27T04:27:07;69520.63;;;17.99;100.00
22930;BME280;11630;42.660;23.292;2022-08-27T04:29:37;69530.22;;;18.04;100.00
22930;BME280;11630;42.660;23.292;2022-08-27T04:32:09;69530.21;;;18.09;100.00
22930;BME280;11630;42.660;23.292;2022-08-27T04:34:40;69549.96;;;18.22;100.00
22930;BME280;11630;42.660;23.292;2022-08-27T04:37:11;69555.44;;;18.27;100.00
22930;BME280;11630;42.660;23.292;2022-08-27T04:39:42;69575.74;;;18.38;100.00
22930;BME280;11630;42.660;23.292;2022-08-27T04:42:14;69569.11;;;18.42;100.00
22930;BME280;11630;42.660;23.292;2022-08-27T04:44:47;69560.63;;;18.35;100.00
22930;BME280;11630;42.660;23.292;2022-08-27T04:47:17;69552.39;;;18.30;100.00
22930;BME280;11630;42.660;23.292;2022-08-27T04:49:49;69584.48;;;18.51;100.00
22930;BME280;11630;42.660;23.292;2022-08-27T04:52:19;69594.00;;;18.70;100.00
22930;BME280;11630;42.660;23.292;2022-08-27T04:54:50;69596.49;;;18.69;100.00
22930;BME280;11630;42.660;23.292;2022-08-27T04:57:21;69624.43;;;18.94;100.00
22930;BME280;11630;42.660;23.292;2022-08-27T04:59:52;69663.98;;;19.15;100.00
22930;BME280;11630;42.660;23.292;2022-08-27T05:02:22;69674.64;;;19.31;100.00
22930;BME280;11630;42.660;23.292;2022-08-27T05:04:56;69702.38;;;19.50;100.00
22930;BME280;11630;42.660;23.292;2022-08-27T05:07:26;69718.52;;;19.66;100.00
22930;BME280;11630;42.660;23.292;2022-08-27T05:09:57;69736.09;;;19.79;100.00
22930;BME280;11630;42.660;23.292;2022-08-27T05:12:28;69740.70;;;19.90;100.00
22930;BME280;11630;42.660;23.292;2022-08-27T05:14:59;69749.77;;;20.02;100.00
22930;BME280;11630;42.660;23.292;2022-08-27T05:17:31;69758.28;;;20.06;100.00
22930;BME280;11630;42.660;23.292;2022-08-27T05:20:02;69753.31;;;20.09;100.00
22930;BME280;11630;42.660;23.292;2022-08-27T05:22:33;69758.83;;;20.09;100.00
22930;BME280;11630;42.660;23.292;2022-08-27T05:25:05;69788.48;;;20.28;100.00
22930;BME280;11630;42.660;23.292;2022-08-27T05:27:36;69802.11;;;20.53;100.00
22930;BME280;11630;42.660;23.292;2022-08-27T05:30:08;69801.30;;;20.51;100.00
22930;BME280;11630;42.660;23.292;2022-08-27T05:32:39;69802.17;;;20.45;100.00
22930;BME280;11630;42.660;23.292;2022-08-27T05:35:11;69820.00;;;20.63;100.00
22930;BME280;11630;42.660;23.292;2022-08-27T05:37:43;69836.77;;;20.74;100.00
22930;BME280;11630;42.660;23.292;2022-08-27T05:40:14;69839.17;;;20.85;100.00
22930;BME280;11630;42.660;23.292;2022-08-27T05:42:43;69854.33;;;20.92;100.00
22930;BME280;11630;42.660;23.292;2022-08-27T05:45:14;69850.70;;;20.95;100.00
22930;BME280;11630;42.660;23.292;2022-08-27T05:47:45;69852.92;;;20.95;100.00
22930;BME280;11630;42.660;23.292;2022-08-27T05:50:16;69869.47;;;20.97;99.54
22930;BME280;11630;42.660;23.292;2022-08-27T05:52:47;69894.98;;;21.22;99.56
22930;BME280;11630;42.660;23.292;2022-08-27T05:55:18;69845.55;;;20.85;99.53
22930;BME280;11630;42.660;23.292;2022-08-27T05:57:49;69847.68;;;20.94;100.00
22930;BME280;11630;42.660;23.292;2022-08-27T06:00:20;69900.45;;;21.32;99.19
22930;BME280;11630;42.660;23.292;2022-08-27T06:03:07;69927.66;;;21.55;98.71
22930;BME280;11630;42.660;23.292;2022-08-27T06:05:38;69893.54;;;21.32;98.77
22930;BME280;11630;42.660;23.292;2022-08-27T06:08:09;69902.05;;;21.38;99.05
22930;BME280;11630;42.660;23.292;2022-08-27T06:10:41;69908.38;;;21.45;100.00
22930;BME280;11630;42.660;23.292;2022-08-27T06:13:12;69968.58;;;21.93;96.78
22930;BME280;11630;42.660;23.292;2022-08-27T06:15:42;69978.23;;;21.96;96.13
22930;BME280;11630;42.660;23.292;2022-08-27T06:18:13;70001.00;;;22.20;94.43
22930;BME280;11630;42.660;23.292;2022-08-27T06:20:44;69951.48;;;21.85;96.15
22930;BME280;11630;42.660;23.292;2022-08-27T06:23:15;69977.72;;;21.90;94.84
22930;BME280;11630;42.660;23.292;2022-08-27T06:25:46;69957.30;;;21.84;95.82
22930;BME280;11630;42.660;23.292;2022-08-27T06:28:21;69981.38;;;22.16;93.59
22930;BME280;11630;42.660;23.292;2022-08-27T06:30:51;70031.45;;;22.54;92.35
22930;BME280;11630;42.660;23.292;2022-08-27T06:33:22;70012.48;;;22.41;93.63
22930;BME280;11630;42.660;23.292;2022-08-27T06:35:53;70073.36;;;22.77;90.20
22930;BME280;11630;42.660;23.292;2022-08-27T06:38:24;70124.73;;;23.29;85.65
22930;BME280;11630;42.660;23.292;2022-08-27T06:40:54;70124.73;;;23.29;85.65
22930;BME280;11630;42.660;23.292;2022-08-27T06:43:26;70092.69;;;23.18;85.61
22930;BME280;11630;42.660;23.292;2022-08-27T06:46:01;70099.73;;;23.06;86.19
22930;BME280;11630;42.660;23.292;2022-08-27T06:48:30;70093.05;;;23.10;86.31
22930;BME280;11630;42.660;23.292;2022-08-27T06:51:09;70112.03;;;23.26;84.95
22930;BME280;11630;42.660;23.292;2022-08-27T06:53:39;70112.03;;;23.26;84.95
22930;BME280;11630;42.660;23.292;2022-08-27T06:56:13;70154.68;;;23.60;82.57
22930;BME280;11630;42.660;23.292;2022-08-27T06:58:44;70188.91;;;23.81;82.30
22930;BME280;11630;42.660;23.292;2022-08-27T07:01:21;70211.89;;;24.14;78.33
22930;BME280;11630;42.660;23.292;2022-08-27T07:03:52;70170.98;;;23.66;80.80
22930;BME280;11630;42.660;23.292;2022-08-27T07:06:21;70205.35;;;24.01;79.09
22930;BME280;11630;42.660;23.292;2022-08-27T07:08:55;70236.81;;;24.22;77.73
22930;BME280;11630;42.660;23.292;2022-08-27T07:11:28;70211.86;;;24.17;77.81
22930;BME280;11630;42.660;23.292;2022-08-27T07:13:59;70224.44;;;24.09;77.17
22930;BME280;11630;42.660;23.292;2022-08-27T07:16:30;70254.11;;;24.44;75.72
22930;BME280;11630;42.660;23.292;2022-08-27T07:19:02;70273.21;;;24.50;74.49
22930;BME280;11630;42.660;23.292;2022-08-27T07:21:37;70287.75;;;24.67;75.62
22930;BME280;11630;42.660;23.292;2022-08-27T07:24:07;70290.72;;;24.76;73.96
22930;BME280;11630;42.660;23.292;2022-08-27T07:26:40;70313.48;;;25.05;72.70
22930;BME280;11630;42.660;23.292;2022-08-27T07:29:12;70331.48;;;25.12;73.67
22930;BME280;11630;42.660;23.292;2022-08-27T07:31:44;70321.29;;;25.02;75.33
22930;BME280;11630;42.660;23.292;2022-08-27T07:34:16;70295.48;;;24.74;78.69
22930;BME280;11630;42.660;23.292;2022-08-27T07:36:47;70304.02;;;24.80;77.82
22930;BME280;11630;42.660;23.292;2022-08-27T07:39:18;70365.38;;;25.42;76.03
22930;BME280;11630;42.660;23.292;2022-08-27T07:41:49;70358.18;;;25.38;76.11
22930;BME280;11630;42.660;23.292;2022-08-27T07:44:36;70381.23;;;25.66;73.81
22930;BME280;11630;42.660;23.292;2022-08-27T07:47:07;70350.16;;;25.34;74.32
22930;BME280;11630;42.660;23.292;2022-08-27T07:49:37;70347.98;;;25.30;76.05
22930;BME280;11630;42.660;23.292;2022-08-27T07:52:09;70435.74;;;25.96;74.84
22930;BME280;11630;42.660;23.292;2022-08-27T07:54:40;70347.69;;;25.31;74.62
22930;BME280;11630;42.660;23.292;2022-08-27T07:57:11;70397.69;;;25.88;73.53
22930;BME280;11630;42.660;23.292;2022-08-27T07:59:42;70443.63;;;26.12;71.25
22930;BME280;11630;42.660;23.292;2022-08-27T08:02:13;70500.49;;;26.58;69.01
22930;BME280;11630;42.660;23.292;2022-08-27T08:04:44;70522.03;;;26.75;68.69
22930;BME280;11630;42.660;23.292;2022-08-27T08:07:15;70468.20;;;26.31;71.68
22930;BME280;11630;42.660;23.292;2022-08-27T08:09:46;70518.73;;;26.72;67.79
22930;BME280;11630;42.660;23.292;2022-08-27T08:12:17;70459.52;;;26.34;68.83
22930;BME280;11630;42.660;23.292;2022-08-27T08:14:48;70497.20;;;26.55;66.41
22930;BME280;11630;42.660;23.292;2022-08-27T08:17:19;70554.00;;;27.07;65.20
22930;BME280;11630;42.660;23.292;2022-08-27T08:19:50;70508.91;;;26.77;65.69
22930;BME280;11630;42.660;23.292;2022-08-27T08:22:21;70467.39;;;26.29;67.44
22930;BME280;11630;42.660;23.292;2022-08-27T08:24:52;70512.10;;;26.66;67.67
22930;BME280;11630;42.660;23.292;2022-08-27T08:27:24;70574.20;;;27.21;65.53
22930;BME280;11630;42.660;23.292;2022-08-27T08:32:42;70598.19;;;27.44;65.54
22930;BME280;11630;42.660;23.292;2022-08-27T08:35:08;70659.13;;;28.03;63.20
22930;BME280;11630;42.660;23.292;2022-08-27T08:37:41;70641.66;;;27.93;62.28
22930;BME280;11630;42.660;23.292;2022-08-27T08:40:24;70671.30;;;28.11;60.86
22930;BME280;11630;42.660;23.292;2022-08-27T08:42:50;70725.98;;;28.60;57.71
22930;BME280;11630;42.660;23.292;2022-08-27T08:45:23;70734.53;;;28.69;57.01
22930;BME280;11630;42.660;23.292;2022-08-27T08:47:54;70770.98;;;29.02;54.41
22930;BME280;11630;42.660;23.292;2022-08-27T08:50:30;70709.94;;;28.48;55.38
22930;BME280;11630;42.660;23.292;2022-08-27T08:53:18;70769.34;;;29.00;54.21
22930;BME280;11630;42.660;23.292;2022-08-27T08:55:55;70765.18;;;28.98;52.80
22930;BME280;11630;42.660;23.292;2022-08-27T08:58:44;70825.75;;;29.49;51.34
22930;BME280;11630;42.660;23.292;2022-08-27T09:01:17;70833.19;;;29.57;51.28
22930;BME280;11630;42.660;23.292;2022-08-27T09:03:57;70840.38;;;29.63;49.01
22930;BME280;11630;42.660;23.292;2022-08-27T09:06:44;70860.02;;;29.79;49.58
22930;BME280;11630;42.660;23.292;2022-08-27T09:14:37;70797.38;;;29.36;45.92
22930;BME280;11630;42.660;23.292;2022-08-27T09:17:08;70798.92;;;29.45;46.72
22930;BME280;11630;42.660;23.292;2022-08-27T09:19:39;70847.01;;;29.69;46.04
22930;BME280;11630;42.660;23.292;2022-08-27T09:22:17;70906.73;;;30.23;44.71
22930;BME280;11630;42.660;23.292;2022-08-27T09:25:13;70936.84;;;30.51;43.46
22930;BME280;11630;42.660;23.292;2022-08-27T09:27:41;70978.83;;;30.91;43.15
22930;BME280;11630;42.660;23.292;2022-08-27T09:30:41;71030.85;;;31.38;42.00
22930;BME280;11630;42.660;23.292;2022-08-27T09:35:19;71041.75;;;31.41;40.19
22930;BME280;11630;42.660;23.292;2022-08-27T09:37:51;71085.09;;;31.87;39.61
22930;BME280;11630;42.660;23.292;2022-08-27T09:40:32;71122.77;;;32.20;37.92
22930;BME280;11630;42.660;23.292;2022-08-27T09:45:51;71160.64;;;32.56;36.41
22930;BME280;11630;42.660;23.292;2022-08-27T09:48:25;71180.95;;;32.70;33.72
22930;BME280;11630;42.660;23.292;2022-08-27T09:51:16;71222.20;;;33.08;32.43
22930;BME280;11630;42.660;23.292;2022-08-27T09:53:56;71223.02;;;33.10;34.22
22930;BME280;11630;42.660;23.292;2022-08-27T09:56:30;71254.33;;;33.37;33.29
22930;BME280;11630;42.660;23.292;2022-08-27T09:59:09;71160.45;;;32.52;33.27
22930;BME280;11630;42.660;23.292;2022-08-27T10:01:56;71191.98;;;32.83;31.82
22930;BME280;11630;42.660;23.292;2022-08-27T10:04:48;71257.91;;;33.42;31.37
22930;BME280;11630;42.660;23.292;2022-08-27T10:12:48;71296.98;;;33.78;32.38
22930;BME280;11630;42.660;23.292;2022-08-27T10:15:17;71327.48;;;34.05;31.17
22930;BME280;11630;42.660;23.292;2022-08-27T10:17:56;71217.81;;;33.02;32.55
22930;BME280;11630;42.660;23.292;2022-08-27T10:23:15;71179.55;;;32.70;32.88
22930;BME280;11630;42.660;23.292;2022-08-27T10:25:51;71229.92;;;33.18;32.78
22930;BME280;11630;42.660;23.292;2022-08-27T10:31:22;71280.66;;;33.62;31.08
22930;BME280;11630;42.660;23.292;2022-08-27T10:39:32;71324.18;;;34.00;30.28
22930;BME280;11630;42.660;23.292;2022-08-27T10:44:53;71272.88;;;33.55;30.70
22930;BME280;11630;42.660;23.292;2022-08-27T10:47:43;71315.82;;;33.95;30.20
22930;BME280;11630;42.660;23.292;2022-08-27T10:50:19;71307.25;;;33.86;30.26
22930;BME280;11630;42.660;23.292;2022-08-27T10:52:56;71154.00;;;32.50;31.66
22930;BME280;11630;42.660;23.292;2022-08-27T10:55:35;71227.44;;;33.14;31.14
22930;BME280;11630;42.660;23.292;2022-08-27T10:58:20;71214.65;;;33.05;31.99
22930;BME280;11630;42.660;23.292;2022-08-27T11:03:43;71388.22;;;34.58;29.95
22930;BME280;11630;42.660;23.292;2022-08-27T11:09:16;71297.57;;;33.76;31.35
22930;BME280;11630;42.660;23.292;2022-08-27T11:11:53;71238.23;;;33.25;31.97
22930;BME280;11630;42.660;23.292;2022-08-27T11:14:32;71310.56;;;33.89;30.37
22930;BME280;11630;42.660;23.292;2022-08-27T11:17:07;71328.59;;;34.06;29.85
22930;BME280;11630;42.660;23.292;2022-08-27T11:19:56;71395.44;;;34.65;29.29
22930;BME280;11630;42.660;23.292;2022-08-27T11:22:30;71410.39;;;34.78;29.38
22930;BME280;11630;42.660;23.292;2022-08-27T11:25:14;71460.02;;;35.24;28.56
22930;BME280;11630;42.660;23.292;2022-08-27T11:27:41;71450.03;;;35.15;29.50
22930;BME280;11630;42.660;23.292;2022-08-27T11:33:19;71492.41;;;35.57;28.71
22930;BME280;11630;42.660;23.292;2022-08-27T11:36:27;71537.92;;;35.98;28.35
22930;BME280;11630;42.660;23.292;2022-08-27T11:39:03;71476.11;;;35.38;28.22
22930;BME280;11630;42.660;23.292;2022-08-27T11:44:15;71479.38;;;35.44;28.47
22930;BME280;11630;42.660;23.292;2022-08-27T11:46:51;71516.92;;;35.74;28.74
22930;BME280;11630;42.660;23.292;2022-08-27T11:49:33;71605.14;;;36.55;27.21
22930;BME280;11630;42.660;23.292;2022-08-27T11:52:02;71611.56;;;36.60;26.61
22930;BME280;11630;42.660;23.292;2022-08-27T11:57:38;71647.97;;;36.91;26.48
22930;BME280;11630;42.660;23.292;2022-08-27T12:03:10;71669.02;;;37.12;26.46
22930;BME280;11630;42.660;23.292;2022-08-27T12:08:53;71674.83;;;37.19;25.50
22930;BME280;11630;42.660;23.292;2022-08-27T12:13:59;71661.48;;;37.07;25.28
22930;BME280;11630;42.660;23.292;2022-08-27T12:16:35;71624.27;;;36.74;25.14
22930;BME280;11630;42.660;23.292;2022-08-27T12:19:24;71673.72;;;37.18;24.36
22930;BME280;11630;42.660;23.292;2022-08-27T12:24:42;71538.02;;;35.93;26.74
22930;BME280;11630;42.660;23.292;2022-08-27T12:27:28;71422.84;;;34.91;27.88
22930;BME280;11630;42.660;23.292;2022-08-27T12:32:33;71464.95;;;35.31;27.89
22930;BME280;11630;42.660;23.292;2022-08-27T12:35:30;71510.78;;;35.71;26.44
22930;BME280;11630;42.660;23.292;2022-08-27T12:41:04;71636.86;;;36.81;25.30
22930;BME280;11630;42.660;23.292;2022-08-27T12:43:37;71582.93;;;36.35;26.01
22930;BME280;11630;42.660;23.292;2022-08-27T12:46:17;71634.81;;;36.83;25.36
22930;BME280;11630;42.660;23.292;2022-08-27T12:48:57;71617.11;;;36.65;25.27
22930;BME280;11630;42.660;23.292;2022-08-27T12:51:30;71513.79;;;35.75;25.25
22930;BME280;11630;42.660;23.292;2022-08-27T13:05:21;71677.03;;;37.21;24.75
22930;BME280;11630;42.660;23.292;2022-08-27T13:07:53;71656.55;;;37.00;24.81
22930;BME280;11630;42.660;23.292;2022-08-27T13:10:29;71664.52;;;37.11;24.84
22930;BME280;11630;42.660;23.292;2022-08-27T13:13:02;71711.55;;;37.49;24.70
22930;BME280;11630;42.660;23.292;2022-08-27T13:15:33;71660.94;;;37.06;24.79
22930;BME280;11630;42.660;23.292;2022-08-27T13:18:04;71581.01;;;36.32;25.22
22930;BME280;11630;42.660;23.292;2022-08-27T13:20:37;71592.14;;;36.42;25.71
22930;BME280;11630;42.660;23.292;2022-08-27T13:23:18;71666.48;;;37.11;25.56
22930;BME280;11630;42.660;23.292;2022-08-27T13:26:05;71685.13;;;37.27;24.59
22930;BME280;11630;42.660;23.292;2022-08-27T13:28:37;71646.25;;;36.92;24.87
22930;BME280;11630;42.660;23.292;2022-08-27T13:31:08;71701.86;;;37.39;24.75
22930;BME280;11630;42.660;23.292;2022-08-27T13:33:40;71699.28;;;37.41;24.50
22930;BME280;11630;42.660;23.292;2022-08-27T13:36:11;71715.14;;;37.54;23.56
22930;BME280;11630;42.660;23.292;2022-08-27T13:38:43;71698.47;;;37.39;23.60
22930;BME280;11630;42.660;23.292;2022-08-27T13:41:22;71701.86;;;37.39;23.16
22930;BME280;11630;42.660;23.292;2022-08-27T13:43:50;71726.80;;;37.64;22.77
22930;BME280;11630;42.660;23.292;2022-08-27T13:46:28;71714.57;;;37.53;22.90
22930;BME280;11630;42.660;23.292;2022-08-27T13:48:59;71715.75;;;37.52;22.44
22930;BME280;11630;42.660;23.292;2022-08-27T13:51:34;71655.44;;;36.99;22.99
22930;BME280;11630;42.660;23.292;2022-08-27T13:54:05;71632.91;;;36.80;23.34
22930;BME280;11630;42.660;23.292;2022-08-27T13:57:04;71637.91;;;36.85;23.83
22930;BME280;11630;42.660;23.292;2022-08-27T13:59:24;71708.78;;;37.47;23.33
22930;BME280;11630;42.660;23.292;2022-08-27T14:02:45;71689.06;;;37.28;22.82
22930;BME280;11630;42.660;23.292;2022-08-27T14:05:02;71657.30;;;37.04;23.51
22930;BME280;11630;42.660;23.292;2022-08-27T14:07:24;71499.73;;;35.58;25.62
22930;BME280;11630;42.660;23.292;2022-08-27T14:10:02;71445.09;;;35.08;26.68
22930;BME280;11630;42.660;23.292;2022-08-27T14:16:10;71486.44;;;35.44;25.87
22930;BME280;11630;42.660;23.292;2022-08-27T14:17:41;71553.27;;;36.08;25.90
22930;BME280;11630;42.660;23.292;2022-08-27T14:20:14;71592.72;;;36.40;25.45
22930;BME280;11630;42.660;23.292;2022-08-27T14:22:46;71581.01;;;36.32;25.18
22930;BME280;11630;42.660;23.292;2022-08-27T14:25:19;71519.15;;;35.76;24.50
22930;BME280;11630;42.660;23.292;2022-08-27T14:27:53;71394.86;;;34.64;26.28
22930;BME280;11630;42.660;23.292;2022-08-27T14:30:24;71403.44;;;34.73;27.15
22930;BME280;11630;42.660;23.292;2022-08-27T14:32:56;71397.58;;;34.69;27.60
22930;BME280;11630;42.660;23.292;2022-08-27T14:35:30;71324.98;;;34.02;27.24